Time;durP1;ratioP1;P1;durP2;ratioP2;P2;SDS_P1;SDS_P2;PMS_P1;PMS_P2;Temp;Humidity;BMP_temperature;BMP_pressure;BME280_temperature;BME280_humidity;BME280_pressure;Samples;Min_cycle;Max_cycle;Signal;HPM_P1;HPM_P2
2022/03/01 00:01:26;;;;;;;16.48;13.15;;;;;;;4.31;68.80;102752.22;10457846;28;20044;-78
2022/03/01 00:06:26;;;;;;;19.73;15.13;;;;;;;4.28;68.87;102747.06;10457570;28;20032;-78
2022/03/01 00:11:27;;;;;;;19.58;14.40;;;;;;;4.32;69.02;102748.56;10457810;28;20060;-78
2022/03/01 00:16:27;;;;;;;20.33;13.98;;;;;;;4.27;69.07;102750.72;10457194;28;20119;-78
2022/03/01 00:21:28;;;;;;;19.25;14.10;;;;;;;4.26;68.85;102753.50;10456989;28;20032;-78
2022/03/01 00:26:29;;;;;;;23.77;14.85;;;;;;;4.29;69.02;102748.78;10439253;28;20021;-77
2022/03/01 00:31:29;;;;;;;23.52;13.35;;;;;;;4.35;69.13;102744.81;10456850;28;20143;-78
2022/03/01 00:36:30;;;;;;;18.73;13.65;;;;;;;4.40;69.10;102740.81;10456717;28;20025;-78
2022/03/01 00:41:31;;;;;;;23.77;13.70;;;;;;;4.36;69.42;102742.00;10457354;28;20021;-78
2022/03/01 00:46:31;;;;;;;20.67;15.25;;;;;;;4.42;69.29;102744.22;10456680;28;20036;-78
2022/03/01 00:51:31;;;;;;;15.95;11.98;;;;;;;4.43;69.40;102745.97;10426963;28;20117;-78
2022/03/01 00:56:33;;;;;;;21.85;14.52;;;;;;;4.69;69.82;102745.88;10415815;28;20108;-78
2022/03/01 01:01:34;;;;;;;18.30;14.05;;;;;;;4.86;69.48;102744.63;10416899;28;20038;-78
2022/03/01 01:06:34;;;;;;;19.55;11.65;;;;;;;4.85;69.60;102745.56;10415024;28;20025;-78
2022/03/01 01:11:35;;;;;;;22.33;14.77;;;;;;;4.90;69.47;102741.56;10414908;28;20025;-77
2022/03/01 01:16:35;;;;;;;20.98;13.05;;;;;;;5.00;69.25;102743.56;10415599;28;20033;-78
2022/03/01 01:26:55;;;;;;;19.30;14.32;;;;;;;5.02;68.79;102753.22;10415914;28;20455;-78
2022/03/01 01:31:55;;;;;;;23.40;14.35;;;;;;;5.01;69.00;102742.59;10415218;28;20060;-78
2022/03/01 01:36:56;;;;;;;24.50;15.27;;;;;;;5.06;69.49;102743.09;10398240;28;20045;-78
2022/03/01 01:41:56;;;;;;;20.92;13.32;;;;;;;5.13;69.17;102729.09;10423820;28;20033;-79
2022/03/01 01:46:57;;;;;;;23.33;14.07;;;;;;;5.19;69.01;102725.06;10420953;28;20345;-78
2022/03/01 01:51:57;;;;;;;16.08;12.90;;;;;;;5.15;68.87;102722.75;10433356;28;20045;-78
2022/03/01 01:56:57;;;;;;;22.67;14.70;;;;;;;5.16;68.63;102722.63;10445175;28;20120;-79
2022/03/01 02:01:58;;;;;;;22.05;14.93;;;;;;;5.10;68.36;102717.72;10444274;28;20028;-78
2022/03/01 02:06:58;;;;;;;24.77;15.18;;;;;;;5.05;68.75;102718.09;10463304;28;20484;-78
2022/03/01 02:11:58;;;;;;;23.80;15.52;;;;;;;4.93;69.36;102715.47;10444432;28;20025;-78
2022/03/01 02:16:59;;;;;;;21.50;14.55;;;;;;;4.86;69.15;102705.19;10462790;28;20102;-78
2022/03/01 02:22:00;;;;;;;22.00;15.80;;;;;;;4.81;69.67;102714.56;10444495;28;20033;-77
2022/03/01 02:27:02;;;;;;;26.67;14.68;;;;;;;4.73;70.05;102706.25;10448129;28;20044;-78
2022/03/01 02:32:07;;;;;;;28.13;15.50;;;;;;;4.66;69.66;102708.53;10463030;28;20025;-78
2022/03/01 02:37:08;;;;;;;18.60;13.80;;;;;;;4.62;70.08;102699.81;10461999;28;20029;-78
2022/03/01 02:42:08;;;;;;;26.55;15.55;;;;;;;4.68;70.28;102706.56;10461272;28;20036;-77
2022/03/01 02:47:09;;;;;;;26.58;17.27;;;;;;;4.62;70.45;102704.34;10460937;28;20036;-79
2022/03/01 02:52:09;;;;;;;25.45;15.13;;;;;;;4.60;70.80;102700.94;10457951;28;20055;-77
2022/03/01 02:57:10;;;;;;;31.30;14.95;;;;;;;4.54;70.99;102696.88;10459032;28;20031;-78
2022/03/01 03:02:12;;;;;;;25.05;16.85;;;;;;;4.62;71.09;102691.78;10441922;28;20037;-79
2022/03/01 03:07:13;;;;;;;21.88;15.68;;;;;;;4.70;70.72;102706.47;10459235;28;20068;-76
2022/03/01 03:12:13;;;;;;;27.60;16.52;;;;;;;4.79;70.57;102709.31;10424581;28;20025;-78
2022/03/01 03:17:14;;;;;;;24.15;16.02;;;;;;;4.95;69.94;102708.19;10458744;28;20064;-78
2022/03/01 03:22:14;;;;;;;20.98;15.75;;;;;;;5.02;69.83;102696.84;10441286;28;20032;-78
2022/03/01 03:27:15;;;;;;;27.42;18.02;;;;;;;5.12;69.12;102710.41;10459404;28;20086;-78
2022/03/01 03:32:15;;;;;;;20.92;15.70;;;;;;;5.22;69.02;102707.88;10458421;28;20025;-76
2022/03/01 03:37:15;;;;;;;24.02;14.40;;;;;;;5.21;68.84;102693.59;10460293;28;20040;-77
2022/03/01 03:42:16;;;;;;;21.75;15.60;;;;;;;5.13;68.51;102701.38;10472085;28;20039;-79
2022/03/01 03:47:16;;;;;;;29.25;17.20;;;;;;;5.15;68.92;102710.19;10458338;28;20024;-77
2022/03/01 03:52:17;;;;;;;21.75;14.38;;;;;;;5.20;68.70;102712.50;10457938;28;20528;-78
2022/03/01 03:57:18;;;;;;;21.75;14.77;;;;;;;5.27;68.48;102709.25;10439645;28;20033;-78
2022/03/01 04:02:18;;;;;;;25.35;15.50;;;;;;;5.28;67.82;102694.81;10457192;28;20167;-78
2022/03/01 04:07:18;;;;;;;23.73;14.45;;;;;;;5.21;67.94;102695.44;10459016;28;20029;-78
2022/03/01 04:12:19;;;;;;;18.60;15.40;;;;;;;5.15;68.17;102687.84;10457883;28;20353;-77
2022/03/01 04:17:19;;;;;;;28.85;17.73;;;;;;;5.00;68.54;102690.72;10457658;28;20037;-78
2022/03/01 04:22:20;;;;;;;27.38;17.77;;;;;;;4.95;69.02;102682.19;10457378;28;20040;-77
2022/03/01 04:27:20;;;;;;;26.42;15.50;;;;;;;5.02;68.98;102682.56;10439023;28;20040;-79
2022/03/01 04:32:20;;;;;;;24.55;16.25;;;;;;;5.02;69.10;102682.56;10456966;28;20460;-76
2022/03/01 04:37:21;;;;;;;21.23;15.55;;;;;;;5.04;68.78;102681.47;10457247;28;20040;-77
2022/03/01 04:42:21;;;;;;;32.65;16.65;;;;;;;5.13;68.89;102691.47;10438948;28;20025;-78
2022/03/01 04:47:22;;;;;;;29.65;14.90;;;;;;;5.21;68.42;102684.69;10455169;28;20533;-78
2022/03/01 04:52:22;;;;;;;22.27;14.75;;;;;;;5.22;68.15;102679.19;10439029;28;20053;-78
2022/03/01 04:57:22;;;;;;;23.48;16.30;;;;;;;5.26;67.98;102675.28;10461256;28;20029;-79
2022/03/01 05:02:23;;;;;;;23.60;15.35;;;;;;;5.32;67.83;102680.19;10456476;28;20093;-78
2022/03/01 05:07:23;;;;;;;23.42;15.55;;;;;;;5.39;68.44;102674.31;10456409;28;20040;-78
2022/03/01 05:12:23;;;;;;;19.70;13.93;;;;;;;5.38;67.91;102665.41;10438748;28;20349;-77
2022/03/01 05:17:24;;;;;;;30.48;17.65;;;;;;;5.38;68.40;102661.88;10463569;28;20037;-78
2022/03/01 05:22:24;;;;;;;31.70;15.07;;;;;;;5.32;68.61;102665.88;10463324;28;20024;-78
2022/03/01 05:27:25;;;;;;;26.95;14.45;;;;;;;5.29;68.49;102675.03;10446311;28;20367;-77
2022/03/01 05:32:25;;;;;;;19.38;14.50;;;;;;;5.31;68.87;102670.41;10463070;28;20028;-79
2022/03/01 05:37:25;;;;;;;20.20;14.80;;;;;;;5.34;69.19;102674.69;10463646;28;20104;-79
2022/03/01 05:42:26;;;;;;;20.45;15.32;;;;;;;5.35;69.00;102673.72;10362181;28;20096;-80
2022/03/01 05:47:26;;;;;;;21.65;13.63;;;;;;;5.38;68.99;102680.69;10426654;28;20036;-75
2022/03/01 05:52:27;;;;;;;23.98;13.85;;;;;;;5.39;68.41;102680.56;10410186;28;20120;-77
2022/03/01 05:57:28;;;;;;;25.33;16.70;;;;;;;5.43;68.11;102675.81;10420906;28;20033;-76
2022/03/01 06:02:29;;;;;;;25.15;14.07;;;;;;;5.49;68.85;102680.72;10420159;28;20441;-78
2022/03/01 06:07:30;;;;;;;22.95;14.43;;;;;;;5.53;69.15;102682.19;10414407;28;20047;-78
2022/03/01 06:12:31;;;;;;;18.92;14.05;;;;;;;5.56;69.14;102660.44;10425140;28;20029;-82
2022/03/01 06:17:31;;;;;;;25.30;15.25;;;;;;;5.54;68.31;102673.13;10421639;28;20061;-77
2022/03/01 06:22:31;;;;;;;20.60;13.52;;;;;;;5.53;68.20;102666.91;10420559;28;20432;-79
2022/03/01 06:27:33;;;;;;;23.90;14.60;;;;;;;5.51;69.21;102673.38;10401845;28;20037;-81
2022/03/01 06:32:34;;;;;;;21.02;15.57;;;;;;;5.50;68.67;102682.41;10400695;28;20028;-79
2022/03/01 06:37:34;;;;;;;23.75;15.27;;;;;;;5.50;69.32;102693.16;10419239;28;20040;-80
2022/03/01 06:42:35;;;;;;;23.98;14.05;;;;;;;5.54;69.18;102694.63;10418984;28;20446;-80
2022/03/01 06:47:35;;;;;;;21.58;15.80;;;;;;;5.38;69.03;102699.50;10418558;28;20121;-78
2022/03/01 06:52:37;;;;;;;31.98;16.80;;;;;;;5.44;69.91;102699.00;10456630;28;20183;-81
2022/03/01 06:57:38;;;;;;;18.42;14.55;;;;;;;5.48;69.88;102712.06;10442923;28;20045;-79
2022/03/01 07:02:39;;;;;;;20.50;14.15;;;;;;;5.56;69.73;102719.56;10442089;28;20044;-80
2022/03/01 07:07:39;;;;;;;18.50;14.82;;;;;;;5.64;69.95;102714.41;10458888;28;20362;-79
2022/03/01 07:12:40;;;;;;;25.75;15.15;;;;;;;5.73;70.16;102719.06;10457590;28;20511;-81
2022/03/01 07:17:40;;;;;;;21.95;14.10;;;;;;;5.76;69.86;102726.91;10441103;28;20083;-81
2022/03/01 07:22:41;;;;;;;20.95;14.90;;;;;;;5.81;69.74;102724.72;10467346;28;20037;-79
2022/03/01 07:27:46;;;;;;;22.77;14.57;;;;;;;5.91;69.99;102729.38;10457389;28;20028;-80
2022/03/01 07:32:46;;;;;;;22.15;15.15;;;;;;;6.01;70.04;102731.22;10424056;28;20033;-77
2022/03/01 07:37:47;;;;;;;19.45;12.88;;;;;;;5.99;67.75;102738.53;10456369;28;20349;-80
2022/03/01 07:42:48;;;;;;;16.38;12.80;;;;;;;6.07;68.74;102737.94;10457729;28;20036;-80
2022/03/01 07:47:48;;;;;;;25.33;15.10;;;;;;;6.17;68.41;102741.59;10456636;28;20039;-81
2022/03/01 07:52:48;;;;;;;24.48;14.90;;;;;;;6.21;68.18;102748.44;10457304;28;20049;-80
2022/03/01 07:57:49;;;;;;;18.85;14.05;;;;;;;6.21;67.97;102751.13;10459104;28;20072;-78
2022/03/01 08:02:49;;;;;;;23.83;13.93;;;;;;;6.12;67.23;102754.56;10456458;28;20333;-80
2022/03/01 08:07:50;;;;;;;22.20;13.23;;;;;;;5.90;67.44;102762.59;10459198;28;20087;-79
2022/03/01 08:12:50;;;;;;;21.98;14.90;;;;;;;5.74;68.46;102771.00;10463715;28;20037;-80
2022/03/01 08:17:51;;;;;;;26.20;15.50;;;;;;;5.50;70.03;102763.03;10444090;28;20488;-77
2022/03/01 08:22:52;;;;;;;25.98;15.18;;;;;;;5.32;71.41;102779.56;10457868;28;20033;-75
2022/03/01 08:27:52;;;;;;;21.15;15.38;;;;;;;5.31;72.63;102785.94;10455618;28;20120;-75
2022/03/01 08:32:53;;;;;;;19.48;14.48;;;;;;;5.45;72.99;102776.78;10439170;28;20082;-76
2022/03/01 08:37:53;;;;;;;17.90;14.35;;;;;;;5.65;73.62;102782.47;10465354;28;20037;-76
2022/03/01 08:42:54;;;;;;;32.20;15.38;;;;;;;5.70;74.97;102786.50;10458417;28;20037;-75
2022/03/01 08:47:54;;;;;;;21.63;16.05;;;;;;;5.82;74.53;102776.66;10442472;28;20377;-76
2022/03/01 08:52:54;;;;;;;20.08;15.15;;;;;;;5.85;75.62;102792.53;10446371;28;20049;-74
2022/03/01 08:57:55;;;;;;;29.77;15.95;;;;;;;5.97;75.95;102805.06;10463256;28;20028;-75
2022/03/01 09:02:56;;;;;;;29.20;16.00;;;;;;;5.99;76.62;102804.91;10446844;28;20069;-77
2022/03/01 09:07:57;;;;;;;31.70;15.20;;;;;;;5.98;76.66;102805.91;10448318;28;20075;-77
2022/03/01 09:12:58;;;;;;;32.05;17.63;;;;;;;5.99;76.62;102803.09;10465866;28;20044;-77
2022/03/01 09:18:00;;;;;;;24.88;16.67;;;;;;;5.90;77.00;102809.16;10465877;28;20116;-78
2022/03/01 09:23:00;;;;;;;31.33;15.55;;;;;;;5.83;77.78;102815.97;10447607;28;20465;-77
2022/03/01 09:28:01;;;;;;;21.75;15.70;;;;;;;5.78;77.98;102815.50;10428850;28;20078;-78
2022/03/01 09:33:01;;;;;;;24.92;16.60;;;;;;;5.73;78.88;102828.44;10462661;28;20071;-77
2022/03/01 09:38:02;;;;;;;26.92;16.38;;;;;;;5.67;79.31;102843.19;10463295;28;20037;-80
2022/03/01 09:43:02;;;;;;;32.15;17.40;;;;;;;5.57;80.22;102845.72;10444821;28;20641;-78
2022/03/01 09:48:03;;;;;;;26.55;16.08;;;;;;;5.42;81.14;102840.66;10464163;28;20041;-77
2022/03/01 09:53:03;;;;;;;26.92;18.38;;;;;;;5.28;83.77;102834.50;10445307;28;20081;-78
2022/03/01 09:58:04;;;;;;;24.92;15.73;;;;;;;5.22;83.54;102845.72;10428000;28;20040;-76
2022/03/01 10:03:04;;;;;;;30.65;17.02;;;;;;;5.16;85.03;102846.16;10463339;28;20036;-74
2022/03/01 10:08:15;;;;;;;24.83;17.27;;;;;;;5.10;86.97;102835.88;10443671;28;20472;-75
2022/03/01 10:13:28;;;;;;;28.85;18.17;;;;;;;5.19;86.17;102829.81;10442815;28;20103;-75
2022/03/01 10:18:33;;;;;;;35.70;18.38;;;;;;;5.28;87.27;102830.97;10461065;28;20388;-75
2022/03/01 10:23:34;;;;;;;24.25;17.45;;;;;;;5.18;89.02;102832.63;10460679;28;20124;-74
2022/03/01 10:28:36;;;;;;;35.90;19.10;;;;;;;5.09;91.32;102832.34;10461633;28;20048;-75
2022/03/01 10:33:38;;;;;;;25.40;18.23;;;;;;;5.05;92.32;102838.06;10443088;28;20082;-75
2022/03/01 10:38:41;;;;;;;22.42;17.40;;;;;;;5.15;91.57;102836.41;10461942;28;20033;-76
2022/03/01 10:43:41;;;;;;;31.67;20.98;;;;;;;5.38;91.58;102834.66;10459774;28;20033;-76
2022/03/01 10:48:42;;;;;;;24.65;17.55;;;;;;;5.54;93.46;102845.09;10443225;28;20067;-75
2022/03/01 10:53:45;;;;;;;26.20;19.08;;;;;;;5.57;94.08;102842.19;10402710;28;20128;-76
2022/03/01 10:58:46;;;;;;;41.53;20.80;;;;;;;5.87;94.23;102820.16;10401028;28;20083;-75
2022/03/01 11:03:49;;;;;;;32.08;19.55;;;;;;;6.45;94.65;102809.34;10421309;28;20112;-75
2022/03/01 11:08:49;;;;;;;36.10;21.08;;;;;;;6.72;92.82;102807.09;10418619;28;20033;-75
2022/03/01 11:13:50;;;;;;;35.83;19.83;;;;;;;6.86;92.35;102813.16;10417338;28;20033;-75
2022/03/01 11:19:00;;;;;;;31.52;19.58;;;;;;;7.49;92.82;102795.28;10417048;28;20037;-75
2022/03/01 11:24:01;;;;;;;22.20;16.63;;;;;;;8.57;90.11;102790.31;10400107;28;20040;-75
2022/03/01 11:29:01;;;;;;;22.02;16.95;;;;;;;8.98;86.84;102784.88;10417142;28;20044;-77
2022/03/01 11:34:14;;;;;;;29.70;16.27;;;;;;;9.54;87.69;102778.75;10417647;28;20064;-77
2022/03/01 11:39:16;;;;;;;25.75;15.70;;;;;;;9.77;85.18;102780.13;10401129;28;20354;-77
2022/03/01 11:44:21;;;;;;;23.10;15.93;;;;;;;9.37;86.90;102795.69;10400754;28;20036;-78
2022/03/01 11:49:21;;;;;;;21.58;16.50;;;;;;;8.79;88.93;102791.94;10400195;28;20049;-78
2022/03/01 11:54:33;;;;;;;22.30;17.08;;;;;;;8.50;88.92;102797.28;10416736;28;20046;-78
2022/03/01 11:59:36;;;;;;;26.45;17.65;;;;;;;8.40;90.14;102804.50;10398095;28;20511;-78
2022/03/01 12:04:47;;;;;;;32.63;15.52;;;;;;;8.19;89.17;102799.09;10415501;28;20056;-78
2022/03/01 12:09:58;;;;;;;29.95;16.10;;;;;;;8.14;89.29;102790.59;10415311;28;20501;-78
2022/03/01 12:14:58;;;;;;;19.60;16.70;;;;;;;8.18;90.60;102792.00;10400482;28;20487;-79
2022/03/01 12:19:59;;;;;;;24.83;16.77;;;;;;;8.13;90.77;102784.31;10399307;28;20037;-79
2022/03/01 12:25:00;;;;;;;23.10;14.77;;;;;;;8.01;90.46;102788.09;10397434;28;20136;-79
2022/03/01 12:30:01;;;;;;;26.95;16.33;;;;;;;8.03;90.31;102791.50;10398236;28;20041;-78
2022/03/01 12:35:02;;;;;;;28.52;17.10;;;;;;;8.04;91.00;102785.16;10415841;28;20096;-78
2022/03/01 12:40:03;;;;;;;30.05;16.67;;;;;;;8.25;89.34;102793.16;10397088;28;20041;-79
2022/03/01 12:45:04;;;;;;;24.63;15.35;;;;;;;8.34;90.39;102773.47;10398217;28;20485;-78
2022/03/01 12:50:18;;;;;;;20.67;16.80;;;;;;;8.44;89.53;102770.81;10416179;28;20068;-79
2022/03/01 12:55:19;;;;;;;26.80;17.17;;;;;;;8.53;90.59;102769.16;10398610;28;20050;-80
2022/03/01 13:00:20;;;;;;;36.17;17.90;;;;;;;8.49;94.02;102768.59;10397011;28;20096;-79
2022/03/01 13:05:24;;;;;;;26.70;16.25;;;;;;;8.11;92.01;102764.72;10414174;28;20469;-79
2022/03/01 13:10:34;;;;;;;23.88;16.98;;;;;;;7.91;90.75;102768.28;10414486;28;20095;-78
2022/03/01 13:15:39;;;;;;;22.10;17.67;;;;;;;7.81;92.59;102757.47;10413339;28;20080;-78
2022/03/01 13:20:40;;;;;;;23.90;17.80;;;;;;;7.85;91.08;102758.91;10420220;28;20049;-78
2022/03/01 13:25:40;;;;;;;34.25;17.00;;;;;;;7.84;91.20;102757.19;10397934;28;20045;-78
2022/03/01 13:30:40;;;;;;;22.88;15.82;;;;;;;7.86;91.54;102755.22;10402686;28;20033;-80
2022/03/01 13:35:41;;;;;;;23.92;17.88;;;;;;;7.84;92.72;102751.78;10418652;28;20069;-79
2022/03/01 13:40:44;;;;;;;22.73;16.83;;;;;;;7.85;92.44;102752.69;10421601;28;20033;-80
2022/03/01 13:45:45;;;;;;;23.33;16.23;;;;;;;7.82;92.27;102753.78;10420513;28;20025;-78
2022/03/01 13:50:48;;;;;;;28.52;16.38;;;;;;;7.76;92.28;102748.09;10414781;28;20140;-79
2022/03/01 13:55:53;;;;;;;42.78;20.33;;;;;;;7.69;90.73;102743.22;10444993;28;20041;-79
2022/03/01 14:00:55;;;;;;;28.73;18.40;;;;;;;7.72;92.27;102747.47;10429524;28;20119;-80
2022/03/01 14:06:09;;;;;;;25.98;17.73;;;;;;;7.83;91.72;102752.78;10447975;28;20056;-80
2022/03/01 14:11:14;;;;;;;26.42;17.40;;;;;;;7.83;92.49;102749.25;10451728;28;20533;-79
2022/03/01 14:16:19;;;;;;;26.45;17.17;;;;;;;7.74;92.52;102744.66;10443106;28;20368;-80
2022/03/01 14:21:23;;;;;;;27.70;18.17;;;;;;;7.52;90.61;102737.56;10461045;28;20418;-80
2022/03/01 14:26:24;;;;;;;29.45;19.90;;;;;;;7.59;91.25;102742.28;10467082;28;20072;-79
2022/03/01 14:31:25;;;;;;;27.45;18.58;;;;;;;7.58;91.91;102726.25;10496610;28;20037;-80
2022/03/01 14:36:25;;;;;;;25.88;18.83;;;;;;;7.61;91.21;102737.63;10477225;28;20522;-79
2022/03/01 14:41:26;;;;;;;31.00;20.50;;;;;;;7.57;91.42;102728.09;10490848;28;20040;-80
2022/03/01 14:46:27;;;;;;;24.02;18.90;;;;;;;7.64;90.95;102734.66;10486940;28;20037;-79
2022/03/01 14:51:27;;;;;;;24.88;16.63;;;;;;;7.66;92.50;102727.31;10464782;28;20056;-80
2022/03/01 14:56:27;;;;;;;29.15;19.90;;;;;;;7.72;91.52;102725.03;10499702;28;20033;-78
2022/03/01 15:01:28;;;;;;;28.40;19.27;;;;;;;7.82;91.55;102716.03;10495320;28;20029;-79
2022/03/01 15:06:28;;;;;;;24.55;17.70;;;;;;;7.86;92.29;102722.84;10491751;28;20029;-81
2022/03/01 15:11:29;;;;;;;26.83;17.58;;;;;;;7.76;92.46;102716.56;10472584;28;20025;-80
2022/03/01 15:16:29;;;;;;;23.85;18.15;;;;;;;7.70;91.43;102722.50;10496064;28;20057;-80
2022/03/01 15:21:29;;;;;;;27.73;18.90;;;;;;;7.66;92.06;102715.66;10498407;28;20052;-79
2022/03/01 15:26:30;;;;;;;30.05;18.95;;;;;;;7.65;91.25;102720.19;10469822;28;20473;-78
2022/03/01 15:31:30;;;;;;;27.65;16.98;;;;;;;7.71;91.03;102723.34;10492054;28;20025;-79
2022/03/01 15:36:31;;;;;;;37.60;21.02;;;;;;;7.76;91.16;102730.06;10489591;28;20037;-79
2022/03/01 15:41:32;;;;;;;44.05;19.38;;;;;;;7.75;92.67;102719.38;10454056;28;20037;-79
2022/03/01 15:46:32;;;;;;;25.45;19.83;;;;;;;7.64;93.70;102715.78;10476549;28;20037;-78
2022/03/01 15:51:33;;;;;;;26.38;18.10;;;;;;;7.53;91.60;102720.41;10463199;28;20075;-81
2022/03/01 15:56:33;;;;;;;31.98;17.23;;;;;;;7.34;87.89;102715.75;10491698;28;20096;-79
2022/03/01 16:01:34;;;;;;;27.90;18.17;;;;;;;7.37;88.43;102715.47;10493807;28;20376;-79
2022/03/01 16:06:34;;;;;;;30.45;17.83;;;;;;;7.37;87.56;102710.09;10489077;28;20071;-79
2022/03/01 16:11:35;;;;;;;35.45;18.92;;;;;;;7.35;87.01;102702.16;10493959;28;20037;-78
2022/03/01 16:16:37;;;;;;;28.65;17.63;;;;;;;7.29;86.58;102709.91;10497671;28;20053;-80
2022/03/01 16:21:37;;;;;;;28.00;18.40;;;;;;;7.12;86.63;102706.81;10470736;28;20051;-80
2022/03/01 16:26:38;;;;;;;25.90;18.88;;;;;;;7.14;86.36;102703.97;10488084;28;20029;-81
2022/03/01 16:31:38;;;;;;;32.03;19.08;;;;;;;7.11;86.39;102694.31;10501422;28;20033;-78
2022/03/01 16:36:39;;;;;;;26.05;17.05;;;;;;;7.10;86.57;102699.84;10497285;28;20040;-80
2022/03/01 16:41:39;;;;;;;32.00;20.95;;;;;;;7.07;88.15;102695.56;10498457;28;20033;-80
2022/03/01 16:46:40;;;;;;;32.58;21.60;;;;;;;7.07;90.07;102709.03;10497888;28;20009;-81
2022/03/01 16:51:40;;;;;;;36.10;21.80;;;;;;;7.00;90.98;102718.63;10495136;28;20061;-80
2022/03/01 16:56:41;;;;;;;31.83;20.33;;;;;;;6.98;91.96;102717.88;10479397;28;20051;-80
2022/03/01 17:01:41;;;;;;;33.53;21.60;;;;;;;6.95;91.88;102718.16;10489665;28;20033;-79
2022/03/01 17:06:42;;;;;;;33.40;21.55;;;;;;;6.96;91.99;102719.88;10489824;28;20040;-78
2022/03/01 17:11:42;;;;;;;31.35;21.65;;;;;;;7.07;91.09;102722.50;10491081;28;20380;-78
2022/03/01 17:16:43;;;;;;;30.75;20.23;;;;;;;7.17;90.03;102728.81;10496766;28;20037;-80
2022/03/01 17:21:43;;;;;;;28.98;21.50;;;;;;;7.17;92.00;102734.19;10496390;28;20032;-78
2022/03/01 17:26:44;;;;;;;32.97;20.90;;;;;;;7.02;93.27;102722.06;10493399;28;20039;-78
2022/03/01 17:31:44;;;;;;;29.65;22.23;;;;;;;6.98;93.55;102734.06;10459304;28;20044;-80
2022/03/01 17:36:45;;;;;;;32.13;21.17;;;;;;;6.90;93.07;102729.31;10494828;28;20037;-80
2022/03/01 17:41:46;;;;;;;31.65;21.63;;;;;;;6.90;92.75;102733.84;10494262;28;20056;-79
2022/03/01 17:46:46;;;;;;;30.90;21.40;;;;;;;6.93;92.97;102734.44;10491934;28;20041;-81
2022/03/01 17:51:46;;;;;;;34.40;21.73;;;;;;;6.98;92.60;102736.75;10491091;28;20060;-79
2022/03/01 17:56:47;;;;;;;29.02;21.90;;;;;;;6.96;93.20;102725.25;10471863;28;20053;-79
2022/03/01 18:01:47;;;;;;;39.30;24.38;;;;;;;6.99;92.67;102728.56;10492536;28;20040;-79
2022/03/01 18:06:47;;;;;;;28.55;19.75;;;;;;;7.03;92.76;102734.53;10467499;28;20041;-79
2022/03/01 18:11:54;;;;;;;30.73;20.55;;;;;;;6.92;94.59;102727.38;10461678;28;20429;-79
2022/03/01 18:16:55;;;;;;;37.05;23.88;;;;;;;6.85;93.74;102728.84;10462423;28;20093;-78
2022/03/01 18:21:55;;;;;;;35.42;23.00;;;;;;;6.83;94.29;102738.91;10448972;28;20044;-79
2022/03/01 18:26:55;;;;;;;31.27;20.63;;;;;;;6.85;94.46;102738.75;10464094;28;20370;-79
2022/03/01 18:31:56;;;;;;;37.97;21.92;;;;;;;6.78;95.41;102735.72;10460900;28;20079;-81
2022/03/01 18:36:56;;;;;;;36.13;23.80;;;;;;;6.69;95.64;102741.88;10461288;28;20029;-79
2022/03/01 18:41:57;;;;;;;33.53;21.95;;;;;;;6.63;95.55;102740.53;10462489;28;20029;-78
2022/03/01 18:46:57;;;;;;;35.35;24.35;;;;;;;6.65;95.73;102740.41;10464245;28;20120;-79
2022/03/01 18:51:58;;;;;;;37.97;24.38;;;;;;;6.65;94.90;102735.88;10460626;28;20481;-79
2022/03/01 18:56:58;;;;;;;30.05;20.80;;;;;;;6.73;95.67;102732.53;10459012;28;20377;-79
2022/03/01 19:01:59;;;;;;;32.05;22.63;;;;;;;6.66;96.55;102737.59;10459418;28;20037;-79
2022/03/01 19:06:59;;;;;;;29.88;21.48;;;;;;;6.69;95.78;102741.88;10442388;28;20021;-79
2022/03/01 19:12:00;;;;;;;40.70;21.38;;;;;;;6.68;95.73;102741.03;10461721;28;20075;-79
2022/03/01 19:17:00;;;;;;;37.42;22.95;;;;;;;6.69;96.86;102737.34;10442159;28;20441;-79
2022/03/01 19:22:01;;;;;;;36.63;22.83;;;;;;;6.72;96.01;102741.63;10458756;28;20044;-79
2022/03/01 19:27:01;;;;;;;27.27;22.65;;;;;;;6.72;96.21;102745.16;10442063;28;20131;-78
2022/03/01 19:32:02;;;;;;;33.17;21.48;;;;;;;6.76;95.41;102729.59;10455123;28;20079;-80
2022/03/01 19:37:03;;;;;;;36.05;23.85;;;;;;;6.72;97.71;102730.84;10459848;28;20075;-80
2022/03/01 19:42:05;;;;;;;35.58;21.75;;;;;;;6.63;96.60;102745.91;10441013;28;20111;-79
2022/03/01 19:47:05;;;;;;;40.50;23.08;;;;;;;6.67;95.97;102752.78;10458327;28;20040;-78
2022/03/01 19:52:06;;;;;;;37.78;23.00;;;;;;;6.69;95.53;102747.25;10459380;28;20140;-73
2022/03/01 19:57:06;;;;;;;37.80;21.27;;;;;;;6.75;95.02;102755.69;10459523;28;20028;-77
2022/03/01 20:02:07;;;;;;;34.78;23.88;;;;;;;6.73;93.75;102756.78;10459549;28;20044;-79
2022/03/01 20:07:07;;;;;;;40.83;23.88;;;;;;;6.69;92.72;102755.34;10462050;28;20100;-76
2022/03/01 20:12:08;;;;;;;28.50;22.38;;;;;;;6.74;93.79;102761.19;10471054;28;20033;-78
2022/03/01 20:17:08;;;;;;;29.42;19.77;;;;;;;6.65;92.75;102762.81;10475711;28;20036;-77
2022/03/01 20:22:09;;;;;;;41.15;24.30;;;;;;;6.57;92.85;102764.41;10456347;28;20032;-80
2022/03/01 20:27:09;;;;;;;35.38;22.98;;;;;;;6.58;93.11;102760.75;10439489;28;20091;-79
2022/03/01 20:32:10;;;;;;;31.88;22.88;;;;;;;6.57;93.06;102761.72;10456790;28;20106;-79
2022/03/01 20:37:10;;;;;;;36.60;25.05;;;;;;;6.57;94.40;102762.56;10457201;28;20416;-77
2022/03/01 20:42:11;;;;;;;26.95;21.17;;;;;;;6.59;94.50;102757.94;10464170;28;20128;-75
2022/03/01 20:47:11;;;;;;;36.95;20.63;;;;;;;6.59;94.38;102755.22;10470312;28;20040;-82
2022/03/01 20:52:11;;;;;;;29.88;20.23;;;;;;;6.57;94.36;102753.63;10463953;28;20053;-79
2022/03/01 20:57:12;;;;;;;29.20;21.98;;;;;;;6.57;94.81;102759.88;10463757;28;20115;-79
2022/03/01 21:02:12;;;;;;;38.17;22.45;;;;;;;6.54;94.01;102746.69;10447550;28;20088;-78
2022/03/01 21:07:13;;;;;;;32.72;22.33;;;;;;;6.55;94.81;102756.47;10464531;28;20136;-80
2022/03/01 21:12:13;;;;;;;28.75;20.02;;;;;;;6.50;93.73;102754.13;10470023;28;20037;-75
2022/03/01 21:17:15;;;;;;;35.30;22.15;;;;;;;6.51;93.90;102760.41;10449251;28;20468;-79
2022/03/01 21:22:15;;;;;;;39.30;23.92;;;;;;;6.48;93.91;102749.88;10449096;28;20036;-77
2022/03/01 21:27:16;;;;;;;28.17;21.88;;;;;;;6.52;94.02;102757.56;10436323;28;20102;-79
2022/03/01 21:32:16;;;;;;;30.35;22.10;;;;;;;6.53;93.82;102761.13;10463877;28;20111;-78
2022/03/01 21:37:16;;;;;;;36.22;23.60;;;;;;;6.50;93.68;102748.75;10447163;28;20060;-77
2022/03/01 21:42:17;;;;;;;38.90;22.50;;;;;;;6.48;93.56;102739.97;10474576;28;20036;-78
2022/03/01 21:47:17;;;;;;;37.15;23.58;;;;;;;6.43;92.96;102746.72;10480086;28;20048;-78
2022/03/01 21:52:18;;;;;;;32.75;23.00;;;;;;;6.44;93.10;102751.94;10489614;28;20087;-77
2022/03/01 21:57:19;;;;;;;35.90;20.63;;;;;;;6.43;93.25;102746.72;10490569;28;20464;-79
2022/03/01 22:02:19;;;;;;;32.72;22.00;;;;;;;6.38;93.08;102739.03;10503749;28;20028;-80
2022/03/01 22:07:19;;;;;;;37.20;23.92;;;;;;;6.43;93.24;102741.31;10503446;28;20040;-81
2022/03/01 22:12:21;;;;;;;45.25;25.35;;;;;;;6.43;93.96;102730.56;10502903;28;20033;-79
2022/03/01 22:17:21;;;;;;;34.50;23.00;;;;;;;6.46;93.30;102733.00;10502726;28;20037;-78
2022/03/01 22:22:22;;;;;;;32.80;20.92;;;;;;;6.40;93.71;102737.03;10492182;28;20033;-78
2022/03/01 22:27:22;;;;;;;30.92;23.35;;;;;;;6.44;93.71;102735.81;10500327;28;20036;-79
2022/03/01 22:32:22;;;;;;;36.65;22.15;;;;;;;6.43;93.82;102736.78;10480351;28;20036;-79
2022/03/01 22:37:24;;;;;;;34.35;22.98;;;;;;;6.48;93.81;102725.66;10496660;28;20043;-79
2022/03/01 22:42:24;;;;;;;44.03;26.35;;;;;;;6.51;93.73;102730.81;10475880;28;20041;-78
2022/03/01 22:47:24;;;;;;;38.13;24.35;;;;;;;6.51;93.67;102728.09;10489874;28;20044;-79
2022/03/01 22:52:25;;;;;;;32.55;21.63;;;;;;;6.51;93.20;102711.97;10497957;28;20053;-78